Time;durP1;ratioP1;P1;durP2;ratioP2;P2;SDS_P1;SDS_P2;PMS_P1;PMS_P2;Temp;Humidity;BMP_temperature;BMP_pressure;BME280_temperature;BME280_humidity;BME280_pressure;Samples;Min_cycle;Max_cycle;Signal;HPM_P1;HPM_P2
2023/02/21 02:14:33;;;;;;;10.18;8.73;;;;;;;1.73;100.00;96289.63;5115200;27;20114;-76
2023/02/21 02:17:10;;;;;;;9.98;9.18;;;;;;;1.74;100.00;96301.69;5117509;27;20046;-76
2023/02/21 02:20:12;;;;;;;10.15;9.20;;;;;;;1.75;100.00;96292.16;5111442;27;20505;-76
2023/02/21 02:23:02;;;;;;;10.02;9.02;;;;;;;1.68;100.00;96294.19;5116542;27;20112;-76
2023/02/21 02:26:03;;;;;;;9.43;8.52;;;;;;;1.65;100.00;96289.16;5118573;27;20023;-76
2023/02/21 02:28:49;;;;;;;9.65;8.82;;;;;;;1.68;100.00;96282.06;5088205;27;20103;-76
2023/02/21 02:31:39;;;;;;;10.70;9.20;;;;;;;1.68;100.00;96289.84;5099609;27;20034;-67
2023/02/21 02:34:24;;;;;;;9.98;8.80;;;;;;;1.68;100.00;96278.63;5115133;27;20062;-68
2023/02/21 02:37:16;;;;;;;9.05;8.05;;;;;;;1.67;100.00;96276.94;5104422;27;20644;-68
2023/02/21 02:40:01;;;;;;;9.20;8.18;;;;;;;1.70;100.00;96275.03;5117552;27;20023;-68
2023/02/21 02:42:29;;;;;;;8.50;7.70;;;;;;;1.65;100.00;96269.19;5115134;27;20045;-67
2023/02/21 02:45:19;;;;;;;9.77;7.70;;;;;;;1.57;100.00;96273.94;5118151;27;20136;-68
2023/02/21 02:47:51;;;;;;;9.98;8.43;;;;;;;1.52;100.00;96273.31;5113511;27;20024;-68
2023/02/21 02:50:17;;;;;;;9.13;8.18;;;;;;;1.51;100.00;96267.25;5118579;27;20023;-75
2023/02/21 02:52:53;;;;;;;12.15;7.95;;;;;;;1.50;100.00;96270.78;5098317;28;20554;-72
2023/02/21 02:55:51;;;;;;;10.88;7.53;;;;;;;1.50;100.00;96272.53;5113602;27;20036;-73
2023/02/21 02:58:19;;;;;;;9.57;8.57;;;;;;;1.46;100.00;96264.06;5104679;28;20044;-73
2023/02/21 03:00:54;;;;;;;9.60;7.70;;;;;;;1.46;100.00;96264.06;5110176;28;20023;-72
2023/02/21 03:03:42;;;;;;;10.70;8.15;;;;;;;1.43;100.00;96265.03;5114250;27;20227;-72
2023/02/21 03:06:10;;;;;;;8.57;7.75;;;;;;;1.46;100.00;96264.06;5100420;28;20382;-73
2023/02/21 03:09:10;;;;;;;8.15;7.38;;;;;;;1.47;100.00;96259.72;5108944;28;20477;-62
2023/02/21 03:11:49;;;;;;;8.63;7.30;;;;;;;1.45;100.00;96257.19;5105461;28;20122;-76
2023/02/21 03:14:18;;;;;;;8.38;7.35;;;;;;;1.41;100.00;96259.06;5103045;28;20546;-76
2023/02/21 03:16:52;;;;;;;7.65;6.55;;;;;;;1.40;100.00;96259.97;5110010;28;20041;-77
2023/02/21 03:19:27;;;;;;;8.05;7.25;;;;;;;1.41;100.00;96256.47;5108855;28;20103;-77
2023/02/21 03:21:56;;;;;;;;;;;;;;;1.39;100.00;96258.31;5081485;28;20031;-77
2023/02/21 03:24:23;;;;;;;7.18;6.47;;;;;;;1.39;100.00;96260.88;5099180;28;20014;-77
2023/02/21 03:26:53;;;;;;;8.75;6.50;;;;;;;1.43;100.00;96264.19;5106774;28;20027;-77
2023/02/21 03:29:19;;;;;;;10.23;6.82;;;;;;;1.39;100.00;96260.88;5109682;28;20022;-68
2023/02/21 03:31:55;;;;;;;8.77;6.88;;;;;;;1.40;100.00;96265.16;5109636;28;20114;-65
2023/02/21 03:34:20;;;;;;;7.53;6.72;;;;;;;1.41;100.00;96268.63;5087673;28;20532;-66
2023/02/21 03:36:46;;;;;;;7.72;6.93;;;;;;;1.41;100.00;96272.03;5089261;28;20028;-65
2023/02/21 03:39:11;;;;;;;8.30;6.70;;;;;;;1.39;100.00;96271.28;5089495;28;20539;-65
2023/02/21 03:41:37;;;;;;;8.40;7.47;;;;;;;1.40;100.00;96265.16;5089017;28;20054;-65
2023/02/21 03:44:02;;;;;;;7.20;6.47;;;;;;;1.43;100.00;96269.38;5088874;28;20610;-65
2023/02/21 03:46:27;;;;;;;8.13;7.22;;;;;;;1.45;100.00;96267.56;5075483;28;20075;-65
2023/02/21 03:48:53;;;;;;;8.38;7.45;;;;;;;1.45;100.00;96271.91;5083493;28;20023;-76
2023/02/21 03:51:19;;;;;;;7.03;6.38;;;;;;;1.44;100.00;96276.25;5088669;28;20406;-67
2023/02/21 03:53:44;;;;;;;7.57;6.80;;;;;;;1.39;100.00;96268.69;5089290;28;20024;-67
2023/02/21 03:56:09;;;;;;;9.02;7.25;;;;;;;1.33;100.00;96276.75;5088766;28;20652;-67
2023/02/21 03:58:35;;;;;;;7.18;6.47;;;;;;;1.28;100.00;96276.13;5088883;28;20028;-67
2023/02/21 04:01:00;;;;;;;11.80;6.80;;;;;;;1.24;100.00;96285.78;5088588;28;20036;-67
2023/02/21 04:03:25;;;;;;;7.25;6.55;;;;;;;1.25;100.00;96284.06;5101166;28;20031;-67
2023/02/21 04:05:51;;;;;;;7.70;6.90;;;;;;;1.23;100.00;96291.91;5088865;28;20107;-76
2023/02/21 04:08:16;;;;;;;7.10;6.40;;;;;;;1.25;100.00;96282.28;5089274;28;20032;-67
2023/02/21 04:10:42;;;;;;;13.63;6.70;;;;;;;1.24;100.00;96280.59;5089329;28;20450;-68
2023/02/21 04:13:08;;;;;;;10.93;7.20;;;;;;;1.22;100.00;96284.19;5088739;28;20051;-68
2023/02/21 04:15:33;;;;;;;19.63;7.25;;;;;;;1.19;100.00;96285.16;5075817;28;20107;-68
2023/02/21 04:17:59;;;;;;;15.27;7.10;;;;;;;1.18;100.00;96280.91;5088715;28;20112;-69
2023/02/21 04:20:24;;;;;;;10.40;7.22;;;;;;;1.17;100.00;96291.31;5071816;28;20031;-68
2023/02/21 04:22:49;;;;;;;8.77;6.68;;;;;;;1.16;100.00;96281.88;5092599;28;20032;-68
2023/02/21 04:25:15;;;;;;;11.73;7.40;;;;;;;1.16;100.00;96289.66;5091900;28;20115;-69
2023/02/21 04:27:40;;;;;;;12.20;7.22;;;;;;;1.18;100.00;96295.59;5092402;28;20043;-73
2023/02/21 04:30:06;;;;;;;15.43;10.52;;;;;;;1.20;100.00;96284.25;5090304;28;20070;-65
2023/02/21 04:32:32;;;;;;;12.68;9.20;;;;;;;1.22;100.00;96285.03;5104207;27;20793;-65
2023/02/21 04:34:57;;;;;;;17.65;8.63;;;;;;;1.22;100.00;96281.59;5091989;28;20052;-66
2023/02/21 04:37:23;;;;;;;11.05;7.70;;;;;;;1.21;100.00;96279.91;5113395;27;20024;-66
2023/02/21 04:39:48;;;;;;;11.65;8.23;;;;;;;1.12;100.00;96279.41;5096403;28;20028;-65
2023/02/21 04:42:13;;;;;;;16.95;8.48;;;;;;;1.07;100.00;96278.78;5092070;28;20406;-65
2023/02/21 04:44:39;;;;;;;14.38;8.40;;;;;;;0.98;100.00;96274.84;5098735;28;20036;-73
2023/02/21 04:47:04;;;;;;;16.20;10.52;;;;;;;0.94;100.00;96269.88;5104552;28;20031;-70
2023/02/21 04:49:29;;;;;;;23.27;9.93;;;;;;;0.95;100.00;96264.63;5100329;28;20486;-73
2023/02/21 04:51:55;;;;;;;13.77;9.32;;;;;;;1.01;100.00;96268.69;5098441;28;20081;-73
2023/02/21 04:54:20;;;;;;;12.85;8.90;;;;;;;1.04;100.00;96273.75;5092530;28;20020;-72
2023/02/21 04:56:46;;;;;;;11.75;9.18;;;;;;;1.00;100.00;96265.25;5091508;28;20102;-73
2023/02/21 04:59:11;;;;;;;13.32;10.18;;;;;;;1.00;100.00;96257.47;5091718;28;20470;-72
2023/02/21 05:01:36;;;;;;;17.80;9.07;;;;;;;1.00;100.00;96264.44;5103026;28;20045;-71
2023/02/21 05:04:02;;;;;;;15.70;9.32;;;;;;;0.97;100.00;96265.38;5101408;28;20016;-72
2023/02/21 05:06:29;;;;;;;14.95;8.93;;;;;;;0.97;100.00;96260.22;5099758;28;20024;-65
2023/02/21 05:08:55;;;;;;;13.23;9.40;;;;;;;0.93;100.00;96256.06;5092964;28;20121;-62
2023/02/21 05:11:21;;;;;;;12.57;8.25;;;;;;;0.90;100.00;96253.63;5090261;28;20628;-62
2023/02/21 05:13:47;;;;;;;12.18;8.60;;;;;;;0.84;100.00;96254.72;5099333;28;20024;-62
2023/02/21 05:16:13;;;;;;;9.80;8.57;;;;;;;0.82;100.00;96253.97;5098739;28;20089;-61
2023/02/21 05:18:41;;;;;;;11.68;8.68;;;;;;;0.85;100.00;96247.78;5089136;28;20020;-63
2023/02/21 05:21:07;;;;;;;12.63;9.38;;;;;;;0.80;100.00;96244.56;5091338;28;20429;-62
2023/02/21 05:23:34;;;;;;;16.10;12.10;;;;;;;0.80;100.00;96240.22;5089271;28;20024;-67
2023/02/21 05:26:17;;;;;;;16.17;14.48;;;;;;;0.74;100.00;96242.25;5083753;28;20031;-64
2023/02/21 05:28:43;;;;;;;11.13;10.07;;;;;;;0.68;100.00;96232.97;5093391;28;20026;-69
2023/02/21 05:31:08;;;;;;;13.38;12.07;;;;;;;0.67;100.00;96234.75;5086389;28;20429;-70
2023/02/21 05:33:33;;;;;;;11.80;10.38;;;;;;;0.67;100.00;96228.72;5086032;28;20477;-71
2023/02/21 05:35:59;;;;;;;19.48;17.45;;;;;;;0.69;100.00;96232.06;5107724;28;20139;-70
2023/02/21 05:38:25;;;;;;;16.85;15.05;;;;;;;0.68;100.00;96225.22;5090932;28;20031;-69
2023/02/21 05:40:51;;;;;;;12.98;10.10;;;;;;;0.65;100.00;96227.94;5089539;28;20035;-70
2023/02/21 05:43:16;;;;;;;13.95;12.63;;;;;;;0.59;100.00;96223.03;5105207;28;20106;-62
2023/02/21 05:45:42;;;;;;;11.30;9.82;;;;;;;0.56;100.00;96232.63;5097878;28;20034;-69
2023/02/21 05:48:07;;;;;;;13.05;11.85;;;;;;;0.58;100.00;96224.78;5089921;28;20077;-69
2023/02/21 05:50:32;;;;;;;16.13;14.55;;;;;;;0.56;100.00;96224.84;5075045;28;20027;-70
2023/02/21 05:52:59;;;;;;;12.15;10.90;;;;;;;0.52;100.00;96228.47;5079773;28;20024;-70
2023/02/21 05:55:25;;;;;;;10.18;9.15;;;;;;;0.55;100.00;96220.59;5090767;28;20107;-69
2023/02/21 05:57:50;;;;;;;9.32;7.75;;;;;;;0.58;100.00;96222.19;5090316;28;20094;-69
2023/02/21 06:00:23;;;;;;;8.93;8.13;;;;;;;0.66;100.00;96219.25;5091699;28;20401;-69
2023/02/21 06:02:50;;;;;;;9.23;8.15;;;;;;;0.76;100.00;96220.50;5102460;28;20028;-68
2023/02/21 06:05:16;;;;;;;8.93;8.05;;;;;;;0.79;100.00;96215.22;5090418;28;20026;-74
2023/02/21 06:07:41;;;;;;;10.10;8.80;;;;;;;0.77;100.00;96217.00;5090359;28;20077;-76
2023/02/21 06:10:07;;;;;;;9.57;8.63;;;;;;;0.73;100.00;96212.06;5090528;28;20490;-76
2023/02/21 06:12:33;;;;;;;9.52;8.43;;;;;;;0.68;100.00;96213.09;5099573;28;20028;-75
2023/02/21 06:14:58;;;;;;;8.52;7.63;;;;;;;0.64;100.00;96215.88;5107279;28;20027;-74
2023/02/21 06:17:24;;;;;;;9.30;8.40;;;;;;;0.62;100.00;96217.72;5090528;28;20035;-77
2023/02/21 06:19:49;;;;;;;11.63;9.00;;;;;;;0.58;100.00;96209.22;5102087;28;20123;-77
2023/02/21 06:22:15;;;;;;;11.27;9.48;;;;;;;0.55;100.00;96212.81;5082383;28;20028;-66
2023/02/21 06:24:40;;;;;;;11.52;9.30;;;;;;;0.51;100.00;96213.81;5075246;28;20035;-68
2023/02/21 06:27:05;;;;;;;13.10;10.73;;;;;;;0.50;100.00;96208.72;5080878;28;20024;-68
2023/02/21 06:29:31;;;;;;;9.77;8.95;;;;;;;0.44;100.00;96215.00;5102725;28;20018;-67
2023/02/21 06:31:58;;;;;;;12.32;11.20;;;;;;;0.40;100.00;96221.25;5099167;28;20580;-68
2023/02/21 06:34:24;;;;;;;12.02;10.75;;;;;;;0.42;100.00;96219.41;5101401;28;20047;-68
2023/02/21 06:36:51;;;;;;;10.50;9.60;;;;;;;0.42;100.00;96216.84;5099801;28;20146;-68
2023/02/21 06:39:16;;;;;;;12.88;10.48;;;;;;;0.40;100.00;96216.06;5101051;28;20603;-68
2023/02/21 06:41:42;;;;;;;11.13;9.40;;;;;;;0.42;100.00;96219.41;5089543;28;20069;-68
2023/02/21 06:44:07;;;;;;;11.60;10.43;;;;;;;0.45;100.00;96218.47;5082146;28;20074;-65
2023/02/21 06:46:35;;;;;;;39.45;27.25;;;;;;;0.48;100.00;96223.50;5088324;28;20470;-65
2023/02/21 06:49:01;;;;;;;14.88;13.23;;;;;;;0.45;100.00;96227.06;5091461;28;20489;-65
2023/02/21 06:51:28;;;;;;;15.07;12.10;;;;;;;0.40;100.00;96223.84;5087079;28;20037;-65
2023/02/21 06:53:54;;;;;;;22.60;17.27;;;;;;;0.38;100.00;96228.25;5098500;28;20019;-65
2023/02/21 06:56:20;;;;;;;24.15;17.73;;;;;;;0.36;100.00;96227.47;5081000;28;20036;-64
2023/02/21 06:58:45;;;;;;;19.55;15.30;;;;;;;0.37;100.00;96231.75;5089327;28;20016;-62
2023/02/21 07:01:10;;;;;;;23.90;17.08;;;;;;;0.37;100.00;96232.56;5090433;28;20485;-62
2023/02/21 07:03:41;;;;;;;39.65;26.48;;;;;;;0.42;100.00;96230.59;5096730;28;20553;-64
2023/02/21 07:06:07;;;;;;;40.80;24.77;;;;;;;0.47;100.00;96233.00;5098474;28;20024;-66
2023/02/21 07:08:33;;;;;;;34.08;21.05;;;;;;;0.48;100.00;96229.50;5093285;28;20028;-66
2023/02/21 07:10:58;;;;;;;28.58;20.15;;;;;;;0.49;100.00;96223.41;5094473;28;20102;-67
2023/02/21 07:13:23;;;;;;;28.40;20.30;;;;;;;0.48;100.00;96219.16;5091009;28;20025;-67
2023/02/21 07:15:49;;;;;;;29.08;20.92;;;;;;;0.50;100.00;96217.31;5093733;28;20095;-65
2023/02/21 07:18:14;;;;;;;42.08;26.15;;;;;;;0.52;100.00;96225.88;5085417;28;20058;-65
2023/02/21 07:20:39;;;;;;;37.85;25.27;;;;;;;0.54;100.00;96218.88;5092885;28;20063;-62
2023/02/21 07:23:05;;;;;;;38.97;25.27;;;;;;;0.60;100.00;96211.75;5114675;28;20465;-64
2023/02/21 07:25:30;;;;;;;42.30;26.63;;;;;;;0.62;100.00;96213.34;5087987;28;20532;-65
2023/02/21 07:27:55;;;;;;;37.97;24.00;;;;;;;0.68;100.00;96209.66;5093339;28;20027;-65
2023/02/21 07:30:21;;;;;;;37.53;25.05;;;;;;;0.68;100.00;96215.69;5088012;28;20016;-65
2023/02/21 07:32:46;;;;;;;33.22;23.75;;;;;;;0.70;100.00;96219.06;5098968;28;20106;-65
2023/02/21 07:35:12;;;;;;;30.00;21.73;;;;;;;0.70;100.00;96210.44;5094126;28;20047;-64
2023/02/21 07:37:37;;;;;;;32.70;22.50;;;;;;;0.69;100.00;96208.75;5107126;28;20027;-65
2023/02/21 07:40:04;;;;;;;27.98;18.92;;;;;;;0.73;100.00;96202.50;5104304;28;20039;-69
2023/02/21 07:42:29;;;;;;;47.83;31.58;;;;;;;0.81;100.00;96205.63;5105839;28;20028;-63
2023/02/21 07:44:58;;;;;;;55.03;30.70;;;;;;;0.87;100.00;96201.06;5088622;28;20031;-62
2023/02/21 07:47:25;;;;;;;33.70;25.33;;;;;;;0.90;100.00;96199.19;5105699;28;20032;-62
2023/02/21 07:49:52;;;;;;;23.40;20.95;;;;;;;0.87;100.00;96203.66;5095258;28;20062;-62
2023/02/21 07:52:18;;;;;;;25.08;17.77;;;;;;;0.87;100.00;96203.66;5106905;28;20072;-63
2023/02/21 07:54:44;;;;;;;18.83;16.90;;;;;;;0.90;100.00;96198.31;5106938;28;20031;-62
2023/02/21 07:57:10;;;;;;;20.63;18.75;;;;;;;0.93;100.00;96208.53;5110811;28;20062;-62
2023/02/21 07:59:35;;;;;;;20.13;18.33;;;;;;;0.97;100.00;96194.53;5109329;28;20016;-66
2023/02/21 08:02:01;;;;;;;14.68;12.75;;;;;;;0.98;100.00;96201.38;5109193;27;20515;-67
2023/02/21 08:04:26;;;;;;;13.52;12.13;;;;;;;1.02;100.00;96207.28;5107259;28;20099;-67
2023/02/21 08:06:58;;;;;;;15.70;12.52;;;;;;;1.07;100.00;96211.34;5109530;28;20107;-67
2023/02/21 08:09:23;;;;;;;15.85;13.32;;;;;;;1.17;100.00;96206.59;5109460;28;20132;-66
2023/02/21 08:11:48;;;;;;;20.13;14.20;;;;;;;1.24;100.00;96201.97;5108067;28;20096;-67
2023/02/21 08:14:14;;;;;;;16.20;12.95;;;;;;;1.24;100.00;96205.38;5109660;28;20103;-67
2023/02/21 08:16:39;;;;;;;15.27;13.18;;;;;;;1.25;100.00;96201.88;5107281;28;20032;-67
2023/02/21 08:19:04;;;;;;;12.70;11.60;;;;;;;1.26;100.00;96208.75;5109444;28;20483;-64
2023/02/21 08:21:30;;;;;;;12.43;11.23;;;;;;;1.29;100.00;96205.16;5109352;28;20832;-71
2023/02/21 08:23:55;;;;;;;13.10;11.32;;;;;;;1.35;100.00;96198.84;5109671;28;20028;-72
2023/02/21 08:26:21;;;;;;;13.52;12.00;;;;;;;1.46;100.00;96203.53;5109151;28;20020;-72
2023/02/21 08:28:47;;;;;;;15.20;13.60;;;;;;;1.88;100.00;96197.19;5107335;28;20023;-73
2023/02/21 08:31:12;;;;;;;16.55;15.05;;;;;;;2.53;100.00;96198.25;5109985;28;20151;-71
2023/02/21 08:33:38;;;;;;;15.30;12.90;;;;;;;3.17;100.00;96197.47;5106989;28;20035;-71
2023/02/21 08:36:04;;;;;;;12.25;11.10;;;;;;;3.78;100.00;96189.78;5066721;28;20063;-71
2023/02/21 08:38:29;;;;;;;15.68;12.23;;;;;;;4.28;100.00;96193.00;5090434;28;20498;-67
2023/02/21 08:40:56;;;;;;;21.80;16.20;;;;;;;4.76;100.00;96195.34;5090063;28;20024;-66
2023/02/21 08:43:22;;;;;;;17.00;13.88;;;;;;;5.16;99.58;96192.03;5089748;28;20093;-66
2023/02/21 08:45:47;;;;;;;14.80;12.35;;;;;;;5.57;98.73;96190.34;5089797;28;20051;-66
2023/02/21 08:48:13;;;;;;;9.00;7.50;;;;;;;5.99;93.95;96191.09;5090142;28;20035;-65
2023/02/21 08:50:38;;;;;;;5.97;5.38;;;;;;;6.33;91.19;96190.66;5090006;28;20016;-66
2023/02/21 08:53:03;;;;;;;4.88;4.47;;;;;;;6.50;89.01;96197.34;5074375;28;20107;-65
2023/02/21 08:55:29;;;;;;;5.90;4.20;;;;;;;6.65;86.95;96189.41;5089453;28;20023;-69
2023/02/21 08:57:54;;;;;;;5.32;4.35;;;;;;;6.88;84.67;96186.03;5089810;28;20091;-65
2023/02/21 09:00:22;;;;;;;6.65;5.15;;;;;;;7.10;84.34;96186.31;5077127;28;20149;-67
2023/02/21 09:02:51;;;;;;;8.15;5.57;;;;;;;7.30;83.65;96183.13;5095616;28;20537;-67
2023/02/21 09:05:23;;;;;;;5.93;5.32;;;;;;;7.57;83.20;96186.47;5090053;28;20035;-67
2023/02/21 09:07:50;;;;;;;11.50;5.70;;;;;;;7.80;82.00;96178.72;5089367;28;20019;-67
2023/02/21 09:10:16;;;;;;;5.78;5.13;;;;;;;7.97;81.51;96175.69;5089641;28;20051;-67
2023/02/21 09:12:42;;;;;;;5.82;4.95;;;;;;;8.10;80.47;96170.38;5089585;28;20388;-67
2023/02/21 09:15:07;;;;;;;9.23;8.25;;;;;;;8.31;82.10;96177.59;5088600;28;20038;-64
2023/02/21 09:17:33;;;;;;;14.85;10.95;;;;;;;8.42;81.73;96168.91;5086976;28;20038;-66
2023/02/21 09:20:01;;;;;;;48.90;38.00;;;;;;;8.67;81.64;96162.66;5087809;28;20065;-63
2023/02/21 09:22:26;;;;;;;11.95;8.40;;;;;;;8.78;79.28;96156.56;5088865;28;20481;-63
2023/02/21 09:24:52;;;;;;;6.22;5.60;;;;;;;9.03;77.07;96152.81;5088994;28;20101;-63
2023/02/21 09:27:17;;;;;;;5.53;5.03;;;;;;;9.15;76.53;96155.47;5089422;28;20016;-63
2023/02/21 09:29:44;;;;;;;5.95;5.32;;;;;;;9.30;73.58;96148.13;5088881;28;20020;-63
2023/02/21 09:32:09;;;;;;;5.70;5.10;;;;;;;9.36;74.36;96144.19;5089249;28;20513;-63
2023/02/21 09:34:34;;;;;;;9.15;5.93;;;;;;;9.38;72.96;96139.66;5093472;28;20127;-65
2023/02/21 09:37:03;;;;;;;6.30;5.70;;;;;;;9.37;73.03;96138.78;5089336;28;20031;-69
2023/02/21 09:39:29;;;;;;;6.38;5.80;;;;;;;9.39;73.99;96131.63;5103467;28;20052;-64
2023/02/21 09:41:56;;;;;;;5.95;5.25;;;;;;;9.67;74.38;96129.41;5097077;28;20549;-65
2023/02/21 09:44:24;;;;;;;7.30;6.60;;;;;;;10.17;73.96;96126.19;5081281;28;20584;-65
2023/02/21 09:46:57;;;;;;;5.75;5.32;;;;;;;10.58;71.96;96121.03;5077977;28;20438;-64
2023/02/21 09:49:27;;;;;;;8.90;5.22;;;;;;;10.94;70.52;96117.13;5099537;28;20027;-65
2023/02/21 09:51:53;;;;;;;7.75;5.47;;;;;;;11.04;68.92;96118.00;5086241;28;20030;-66
2023/02/21 09:54:24;;;;;;;6.80;5.78;;;;;;;11.21;67.94;96107.78;5104721;28;20519;-69
2023/02/21 09:56:49;;;;;;;6.32;5.30;;;;;;;11.52;67.02;96116.44;5087796;28;20023;-67
2023/02/21 09:59:15;;;;;;;8.65;5.53;;;;;;;11.57;66.66;96116.00;5089434;28;20024;-66
2023/02/21 10:01:59;;;;;;;5.97;5.38;;;;;;;11.69;63.41;96108.78;5100024;28;20115;-65
2023/02/21 10:05:12;;;;;;;8.57;5.07;;;;;;;11.79;63.77;96108.78;5084939;28;20580;-66
2023/02/21 10:07:52;;;;;;;10.57;5.22;;;;;;;12.22;63.81;96096.97;5090568;28;20066;-66
2023/02/21 10:10:29;;;;;;;5.40;4.95;;;;;;;12.48;60.96;96093.69;5090209;28;20029;-66
2023/02/21 10:13:17;;;;;;;6.53;5.78;;;;;;;12.74;62.43;96090.44;5123231;27;20016;-70
2023/02/21 10:15:49;;;;;;;6.50;5.82;;;;;;;12.94;61.09;96087.69;5076905;28;20487;-70
2023/02/21 10:18:26;;;;;;;7.32;5.68;;;;;;;12.82;59.25;96085.25;5089458;28;20035;-65
2023/02/21 10:20:56;;;;;;;6.40;5.53;;;;;;;13.06;60.15;96083.06;5097938;28;20025;-66
2023/02/21 10:23:42;;;;;;;5.80;5.32;;;;;;;12.97;59.27;96080.28;5087711;28;20108;-66
2023/02/21 10:26:14;;;;;;;5.50;4.72;;;;;;;12.79;58.96;96082.03;5086847;28;20028;-66
2023/02/21 10:28:39;;;;;;;5.80;5.03;;;;;;;12.90;60.15;96080.03;5082265;28;20232;-66
2023/02/21 10:31:14;;;;;;;5.53;4.78;;;;;;;12.79;58.34;96077.63;5076047;28;20037;-66
2023/02/21 10:33:40;;;;;;;5.53;4.90;;;;;;;12.98;59.78;96073.22;5094583;28;20064;-69
2023/02/21 10:36:16;;;;;;;7.25;4.97;;;;;;;13.09;56.28;96067.72;5091433;28;20123;-65
2023/02/21 10:38:52;;;;;;;8.80;4.50;;;;;;;13.43;53.95;96061.81;5082746;28;20022;-65
2023/02/21 10:41:18;;;;;;;7.50;6.13;;;;;;;13.10;55.46;96066.72;5086448;28;20038;-65
2023/02/21 10:43:49;;;;;;;7.07;6.05;;;;;;;13.43;54.36;96063.63;5084513;28;20020;-65
2023/02/21 10:46:34;;;;;;;6.03;5.53;;;;;;;13.42;55.64;96054.00;5081832;28;20113;-64
2023/02/21 10:49:16;;;;;;;6.30;5.68;;;;;;;13.52;55.91;96051.31;5083359;28;20199;-64
2023/02/21 10:51:41;;;;;;;5.78;5.25;;;;;;;13.56;55.68;96047.38;5097522;28;20077;-68
2023/02/21 10:54:24;;;;;;;7.57;5.60;;;;;;;14.11;52.95;96038.34;5088281;28;20036;-71
2023/02/21 10:56:52;;;;;;;6.50;5.82;;;;;;;13.81;53.94;96042.28;5080763;28;20054;-69
2023/02/21 10:59:36;;;;;;;7.78;5.50;;;;;;;14.12;52.43;96036.56;5074408;28;20066;-68
2023/02/21 11:02:22;;;;;;;7.20;6.07;;;;;;;14.20;51.62;96030.47;5087126;28;20028;-69
2023/02/21 11:04:50;;;;;;;8.52;5.57;;;;;;;14.42;51.42;96032.59;5090723;28;20030;-68
2023/02/21 11:07:15;;;;;;;7.88;5.95;;;;;;;14.43;51.50;96028.13;5084452;28;20048;-69
2023/02/21 11:09:45;;;;;;;6.05;5.55;;;;;;;14.45;49.54;96023.50;5087152;28;20102;-68
2023/02/21 11:12:25;;;;;;;6.20;5.32;;;;;;;14.89;49.29;96012.75;5087299;28;20043;-68
2023/02/21 11:14:51;;;;;;;5.40;4.90;;;;;;;14.83;49.96;96012.59;5086933;28;20028;-69
2023/02/21 11:17:23;;;;;;;6.00;5.50;;;;;;;14.74;49.42;95999.31;5086206;28;20391;-69
2023/02/21 11:20:05;;;;;;;5.75;5.22;;;;;;;14.95;48.91;95999.88;5099591;28;20028;-68
2023/02/21 11:22:37;;;;;;;5.97;5.32;;;;;;;14.84;48.22;96001.00;5087099;28;20039;-68
2023/02/21 11:25:07;;;;;;;6.25;5.65;;;;;;;14.83;48.33;95994.88;5088696;28;20594;-70
2023/02/21 11:27:36;;;;;;;6.80;5.00;;;;;;;14.60;48.92;95984.81;5088048;28;20494;-69
2023/02/21 11:30:12;;;;;;;6.95;5.20;;;;;;;14.80;47.13;95989.88;5088033;28;20032;-68
2023/02/21 11:32:40;;;;;;;6.60;5.95;;;;;;;14.75;48.72;95978.94;5096931;28;20052;-69
2023/02/21 11:35:21;;;;;;;6.03;5.50;;;;;;;14.33;50.57;95975.25;5102284;28;20049;-66
2023/02/21 11:37:57;;;;;;;6.03;5.55;;;;;;;14.60;50.92;95971.56;5112345;28;20031;-65
2023/02/21 11:40:40;;;;;;;6.10;5.35;;;;;;;15.22;49.53;95971.41;5112186;28;20019;-65
2023/02/21 11:43:11;;;;;;;6.25;5.75;;;;;;;15.18;47.56;95965.59;5111920;28;20501;-65
2023/02/21 11:45:41;;;;;;;6.45;5.82;;;;;;;14.85;48.50;95966.38;5104652;28;20024;-65
2023/02/21 11:48:13;;;;;;;6.97;6.28;;;;;;;14.98;48.54;95954.47;5111921;28;20516;-65
2023/02/21 11:50:48;;;;;;;7.38;5.43;;;;;;;15.33;47.60;95952.50;5112302;28;20023;-69
2023/02/21 11:53:22;;;;;;;8.30;5.88;;;;;;;15.55;46.81;95952.84;5108482;28;20031;-68
2023/02/21 11:55:57;;;;;;;5.90;5.30;;;;;;;15.79;46.72;95944.03;5112171;28;20421;-69
2023/02/21 11:58:36;;;;;;;6.90;6.22;;;;;;;15.95;45.14;95937.88;5098226;28;20028;-68
2023/02/21 12:01:21;;;;;;;9.52;6.13;;;;;;;15.57;46.29;95929.63;5111608;28;20032;-69
2023/02/21 12:04:02;;;;;;;7.70;5.47;;;;;;;15.48;45.94;95928.81;5102780;28;20035;-68
2023/02/21 12:07:01;;;;;;;6.10;5.60;;;;;;;14.97;47.67;95927.13;5111694;28;20035;-69
2023/02/21 12:10:08;;;;;;;5.88;5.25;;;;;;;15.25;46.72;95918.03;5108677;28;20023;-70
2023/02/21 12:12:51;;;;;;;7.78;5.28;;;;;;;15.22;45.54;95915.72;5083227;28;20036;-69
2023/02/21 12:15:35;;;;;;;6.05;5.40;;;;;;;15.00;45.31;95910.88;5111625;28;20034;-70
2023/02/21 12:18:38;;;;;;;7.47;5.15;;;;;;;14.85;45.84;95900.09;5108946;28;20535;-71
2023/02/21 12:21:21;;;;;;;4.55;4.15;;;;;;;14.87;44.38;95894.66;5103140;28;20075;-70
2023/02/21 12:24:18;;;;;;;6.78;4.50;;;;;;;15.10;43.15;95900.13;5111057;28;20092;-70
2023/02/21 12:27:13;;;;;;;5.93;4.25;;;;;;;15.04;42.85;95887.53;5096026;28;20057;-69
2023/02/21 12:29:57;;;;;;;5.40;5.00;;;;;;;15.20;43.10;95885.91;5104376;28;20034;-62
2023/02/21 12:32:44;;;;;;;4.50;4.10;;;;;;;14.95;43.48;95880.59;5111196;28;20032;-69
2023/02/21 12:35:37;;;;;;;5.40;3.50;;;;;;;14.69;42.67;95879.69;5102696;28;20043;-70
2023/02/21 12:38:08;;;;;;;4.43;3.78;;;;;;;15.08;41.63;95872.94;5111355;28;20102;-70
2023/02/21 12:40:43;;;;;;;3.25;2.95;;;;;;;15.18;41.38;95873.63;5111117;28;20024;-70
2023/02/21 12:43:11;;;;;;;;;;;;;;;15.38;39.96;95873.28;5102556;28;20024;-70
2023/02/21 12:45:43;;;;;;;3.45;3.00;;;;;;;15.38;40.11;95870.63;5110614;28;19919;-71
2023/02/21 12:48:24;;;;;;;3.80;2.70;;;;;;;15.11;41.44;95856.72;5111133;28;20028;-73
2023/02/21 12:50:53;;;;;;;3.92;3.53;;;;;;;15.41;40.49;95867.63;5108085;28;20023;-70
2023/02/21 12:53:28;;;;;;;6.50;3.30;;;;;;;15.37;40.19;95858.38;5110552;28;20027;-70
2023/02/21 12:56:09;;;;;;;4.88;3.60;;;;;;;15.27;40.72;95855.03;5110713;28;20098;-69
2023/02/21 12:58:35;;;;;;;4.80;3.33;;;;;;;14.96;41.27;95843.28;5098655;28;20151;-69
2023/02/21 13:01:23;;;;;;;4.38;3.90;;;;;;;15.02;40.91;95842.63;5110647;28;20052;-70
2023/02/21 13:03:58;;;;;;;4.53;3.20;;;;;;;15.29;40.31;95842.44;5101678;28;20520;-69
2023/02/21 13:06:40;;;;;;;3.35;3.08;;;;;;;15.16;40.79;95838.50;5092261;28;20037;-66
2023/02/21 13:09:19;;;;;;;3.95;3.63;;;;;;;15.32;40.12;95824.38;5110403;28;20522;-68
2023/02/21 13:12:03;;;;;;;3.70;3.13;;;;;;;15.52;39.74;95821.34;5110613;28;20523;-67
2023/02/21 13:14:48;;;;;;;3.65;3.35;;;;;;;15.43;39.74;95822.34;5096935;28;20020;-67
2023/02/21 13:17:16;;;;;;;4.38;3.15;;;;;;;15.21;40.71;95814.09;5096926;28;20020;-67
2023/02/21 13:19:51;;;;;;;5.10;3.75;;;;;;;15.36;41.11;95800.97;5110447;28;20566;-67
2023/02/21 13:25:13;;;;;;;5.20;4.10;;;;;;;15.54;40.67;95798.13;5109556;28;20042;-67
2023/02/21 13:28:10;;;;;;;7.93;3.80;;;;;;;15.83;40.12;95801.19;5110981;28;20035;-67
2023/02/21 13:30:41;;;;;;;4.80;3.78;;;;;;;16.06;41.56;95789.84;5109822;28;20032;-68
2023/02/21 13:33:28;;;;;;;5.43;4.40;;;;;;;16.42;39.97;95783.97;5088696;28;20036;-68
2023/02/21 13:35:58;;;;;;;5.78;4.25;;;;;;;16.56;39.28;95783.22;5104607;28;20448;-68
2023/02/21 13:38:26;;;;;;;6.63;4.60;;;;;;;16.60;39.29;95773.88;5110389;28;20031;-68
2023/02/21 13:41:02;;;;;;;8.10;4.93;;;;;;;16.31;40.37;95770.09;5109994;28;20102;-68
2023/02/21 13:43:33;;;;;;;12.27;6.25;;;;;;;16.71;39.63;95769.16;5110158;28;20023;-68
2023/02/21 13:46:23;;;;;;;7.25;6.00;;;;;;;16.87;40.01;95769.00;5109677;28;20080;-62
2023/02/21 13:49:27;;;;;;;10.98;5.28;;;;;;;17.03;39.79;95760.09;5110142;28;20103;-72
2023/02/21 13:51:54;;;;;;;8.63;5.30;;;;;;;17.24;39.67;95760.38;5083093;28;20030;-73
2023/02/21 13:54:24;;;;;;;11.65;6.07;;;;;;;17.43;38.93;95759.84;5109014;28;20023;-76
2023/02/21 13:56:50;;;;;;;7.88;5.70;;;;;;;17.43;38.95;95754.53;5109946;28;20032;-73
2023/02/21 13:59:21;;;;;;;6.18;4.95;;;;;;;17.20;39.37;95751.94;5099840;28;20500;-73
2023/02/21 14:01:49;;;;;;;11.93;7.57;;;;;;;17.40;38.33;95754.91;5108610;27;20520;-73
2023/02/21 14:04:58;;;;;;;7.25;4.28;;;;;;;17.17;38.33;95749.66;5109930;28;20031;-63